createdAt,value
2022-12-12T00:00:31.563Z,22.85
2022-12-12T00:03:19.368Z,22.42
2022-12-12T00:06:07.011Z,22.77
2022-12-12T00:08:54.474Z,23.15
2022-12-12T00:11:42.238Z,23.85
2022-12-12T00:14:29.761Z,22.63
2022-12-12T00:17:17.260Z,21.85
2022-12-12T00:20:05.938Z,22.58
2022-12-12T00:22:53.462Z,22.50
2022-12-12T00:25:41.054Z,22.23
2022-12-12T00:28:28.965Z,21.40
2022-12-12T00:31:16.657Z,20.85
2022-12-12T00:34:04.273Z,19.83
2022-12-12T00:36:51.883Z,19.83
2022-12-12T00:39:39.025Z,18.92
2022-12-12T00:42:27.303Z,21.65
2022-12-12T00:45:15.055Z,20.52
2022-12-12T00:48:02.598Z,20.98
2022-12-12T00:50:49.893Z,21.17
2022-12-12T00:53:38.525Z,22.15
2022-12-12T00:56:27.712Z,21.52
2022-12-12T00:59:15.168Z,21.65
2022-12-12T01:02:02.367Z,21.08
2022-12-12T01:04:49.919Z,20.80
2022-12-12T01:07:38.416Z,20.88
2022-12-12T01:10:25.937Z,20.63
2022-12-12T01:13:13.498Z,22.52
2022-12-12T01:16:01.104Z,22.20
2022-12-12T01:18:48.643Z,20.92
2022-12-12T01:21:36.954Z,20.42
2022-12-12T01:24:24.438Z,21.98
2022-12-12T01:27:12.076Z,21.17
2022-12-12T01:30:01.791Z,21.50
2022-12-12T01:32:49.642Z,21.63
2022-12-12T01:35:37.138Z,19.20
2022-12-12T01:38:24.674Z,20.25
2022-12-12T01:41:12.160Z,19.73
2022-12-12T01:44:04.330Z,19.95
2022-12-12T01:46:52.003Z,20.98
2022-12-12T01:49:40.998Z,20.60
2022-12-12T01:52:40.785Z,19.65
2022-12-12T01:55:28.288Z,19.75
2022-12-12T01:58:16.377Z,18.42
2022-12-12T02:01:03.982Z,19.23
2022-12-12T02:03:51.552Z,18.80
2022-12-12T02:06:40.505Z,19.77
2022-12-12T02:09:28.174Z,19.38
2022-12-12T02:12:15.728Z,19.00
2022-12-12T02:15:04.626Z,18.73
2022-12-12T02:18:09.841Z,19.85
2022-12-12T02:20:59.936Z,18.90
2022-12-12T02:24:20.425Z,19.73
2022-12-12T02:27:27.751Z,20.10
2022-12-12T02:30:22.274Z,20.13
2022-12-12T02:33:25.604Z,19.85
2022-12-12T02:37:01.453Z,19.30
2022-12-12T02:40:11.417Z,19.00
2022-12-12T02:43:13.507Z,19.50
2022-12-12T02:46:24.388Z,19.38
2022-12-12T02:49:14.746Z,19.08
2022-12-12T02:52:03.192Z,19.40
2022-12-12T02:54:50.757Z,18.75
2022-12-12T02:57:41.684Z,19.48
2022-12-12T03:00:34.567Z,19.95
2022-12-12T03:03:54.484Z,18.15
2022-12-12T03:07:06.284Z,19.10
2022-12-12T03:10:03.196Z,19.27
2022-12-12T03:13:13.101Z,21.00
2022-12-12T03:16:39.798Z,19.63
2022-12-12T03:19:42.217Z,19.90
2022-12-12T03:22:44.700Z,22.25
2022-12-12T03:25:44.304Z,22.17
2022-12-12T03:28:43.109Z,23.30
2022-12-12T03:31:34.477Z,22.65
2022-12-12T03:34:31.583Z,23.27
2022-12-12T03:37:42.230Z,24.38
2022-12-12T03:40:40.968Z,22.02
2022-12-12T03:43:28.440Z,22.05
2022-12-12T03:46:32.583Z,23.90
2022-12-12T03:49:36.623Z,24.33
2022-12-12T03:52:41.252Z,22.25
2022-12-12T03:55:55.860Z,22.83
2022-12-12T03:59:01.714Z,23.45
2022-12-12T04:01:57.412Z,21.17
2022-12-12T04:04:55.109Z,23.92
2022-12-12T04:07:46.765Z,22.85
2022-12-12T04:11:06.504Z,24.27
2022-12-12T04:14:12.194Z,24.27
2022-12-12T04:17:04.129Z,23.23
2022-12-12T04:20:21.997Z,25.15
2022-12-12T04:23:42.948Z,24.00
2022-12-12T04:26:44.421Z,23.00
2022-12-12T04:29:50.161Z,24.05
2022-12-12T04:33:09.195Z,24.15
2022-12-12T04:35:59.304Z,22.63
2022-12-12T04:38:47.638Z,24.90
2022-12-12T04:41:36.912Z,24.92
2022-12-12T04:44:27.208Z,24.33
2022-12-12T04:47:15.548Z,25.95
2022-12-12T04:50:03.772Z,25.20
2022-12-12T04:52:53.595Z,26.30
2022-12-12T04:55:44.685Z,25.42
2022-12-12T04:58:32.214Z,24.20
2022-12-12T05:01:32.415Z,26.90
2022-12-12T05:04:31.093Z,25.60
2022-12-12T05:07:40.672Z,26.00
2022-12-12T05:10:28.262Z,24.90
2022-12-12T05:13:23.589Z,24.95
2022-12-12T05:16:14.892Z,26.52
2022-12-12T05:19:02.394Z,26.52
2022-12-12T05:21:49.948Z,23.80
2022-12-12T05:24:37.428Z,23.80
2022-12-12T05:27:24.886Z,23.52
2022-12-12T05:30:12.452Z,25.17
2022-12-12T05:32:59.956Z,24.63
2022-12-12T05:35:47.421Z,23.27
2022-12-12T05:38:35.084Z,24.83
2022-12-12T05:41:22.633Z,22.10
2022-12-12T05:44:10.114Z,23.90
2022-12-12T05:46:57.598Z,24.35
2022-12-12T05:49:45.488Z,23.42
2022-12-12T05:52:33.179Z,24.60
2022-12-12T05:55:20.230Z,21.98
2022-12-12T05:58:07.461Z,23.02
2022-12-12T06:00:57.350Z,25.45
2022-12-12T06:03:49.186Z,23.75
2022-12-12T06:06:36.770Z,23.70
2022-12-12T06:09:24.241Z,23.15
2022-12-12T06:12:12.107Z,21.70
2022-12-12T06:14:59.241Z,23.63
2022-12-12T06:17:46.338Z,20.05
2022-12-12T06:20:33.883Z,20.77
2022-12-12T06:23:21.342Z,21.02
2022-12-12T06:26:11.103Z,21.10
2022-12-12T06:28:58.318Z,20.52
2022-12-12T06:31:45.859Z,22.45
2022-12-12T06:34:33.333Z,23.85
2022-12-12T06:37:21.148Z,20.50
2022-12-12T06:40:08.829Z,23.35
2022-12-12T06:42:57.126Z,22.75
2022-12-12T06:45:44.380Z,25.20
2022-12-12T06:48:33.384Z,27.95
2022-12-12T06:51:24.300Z,23.33
2022-12-12T06:54:13.661Z,22.08
2022-12-12T06:57:01.158Z,21.25
2022-12-12T06:59:51.156Z,19.63
2022-12-12T07:02:38.791Z,20.52
2022-12-12T07:05:26.317Z,22.40
2022-12-12T07:08:15.140Z,21.90
2022-12-12T07:11:11.596Z,22.67
2022-12-12T07:13:59.997Z,22.10
2022-12-12T07:16:47.544Z,21.55
2022-12-12T07:19:35.083Z,21.20
2022-12-12T07:22:22.611Z,22.05
2022-12-12T07:25:10.278Z,22.30
2022-12-12T07:27:57.949Z,21.35
2022-12-12T07:30:47.093Z,20.98
2022-12-12T07:33:43.141Z,21.38
2022-12-12T07:36:31.803Z,21.45
2022-12-12T07:39:21.130Z,20.17
2022-12-12T07:42:08.732Z,22.17
2022-12-12T07:44:56.223Z,20.95
2022-12-12T07:47:43.937Z,21.92
2022-12-12T07:50:31.405Z,21.75
2022-12-12T07:53:18.493Z,19.73
2022-12-12T07:56:07.630Z,19.50
2022-12-12T07:58:55.536Z,19.25
2022-12-12T08:01:43.108Z,18.27
2022-12-12T08:04:30.355Z,20.33
2022-12-12T08:07:17.827Z,20.88
2022-12-12T08:10:06.969Z,19.58
2022-12-12T08:12:54.514Z,19.63
2022-12-12T08:15:42.962Z,19.05
2022-12-12T08:18:30.705Z,20.75
2022-12-12T08:21:25.134Z,20.25
2022-12-12T08:24:15.263Z,18.95
2022-12-12T08:27:02.381Z,20.15
2022-12-12T08:29:54.544Z,19.20
2022-12-12T08:32:42.032Z,19.83
2022-12-12T08:35:32.735Z,20.00
2022-12-12T08:38:20.370Z,19.10
2022-12-12T08:41:07.872Z,18.35
2022-12-12T08:43:55.305Z,18.58
2022-12-12T08:46:42.811Z,19.30
2022-12-12T08:49:31.362Z,19.25
2022-12-12T08:52:18.953Z,17.35
2022-12-12T08:55:06.540Z,18.67
2022-12-12T08:57:54.096Z,18.50
2022-12-12T09:00:41.710Z,19.50
2022-12-12T09:03:29.849Z,20.63
2022-12-12T09:06:18.352Z,20.10
2022-12-12T09:09:06.157Z,21.98
2022-12-12T09:11:53.299Z,19.23
2022-12-12T09:14:40.388Z,19.60
2022-12-12T09:17:27.981Z,19.83
2022-12-12T09:20:16.019Z,21.30
2022-12-12T09:23:03.593Z,21.63
2022-12-12T09:25:51.286Z,19.42
2022-12-12T09:28:39.142Z,19.35
2022-12-12T09:31:26.805Z,20.58
2022-12-12T09:34:14.394Z,19.67
2022-12-12T09:37:02.082Z,20.15
2022-12-12T09:39:52.189Z,19.67
2022-12-12T09:42:46.387Z,20.30
2022-12-12T09:45:36.584Z,19.38
2022-12-12T09:48:35.707Z,19.80
2022-12-12T09:51:23.605Z,20.00
2022-12-12T09:54:14.877Z,19.55
2022-12-12T09:57:09.787Z,20.13
2022-12-12T09:59:57.321Z,20.30
2022-12-12T10:03:15.493Z,20.20
2022-12-12T10:06:35.908Z,19.35
2022-12-12T10:09:31.705Z,20.52
2022-12-12T10:12:21.618Z,20.10
2022-12-12T10:15:25.065Z,19.25
2022-12-12T10:18:17.370Z,18.70
2022-12-12T10:21:14.222Z,19.13
2022-12-12T10:24:10.017Z,18.25
2022-12-12T10:26:59.515Z,17.25
2022-12-12T10:29:48.594Z,20.45
2022-12-12T10:33:14.862Z,17.73
2022-12-12T10:36:14.014Z,18.60
2022-12-12T10:39:20.885Z,19.92
2022-12-12T10:42:23.630Z,21.02
2022-12-12T10:45:49.833Z,21.05
2022-12-12T10:48:37.435Z,21.20
2022-12-12T10:51:27.594Z,20.33
2022-12-12T10:54:23.890Z,21.30
2022-12-12T10:57:20.285Z,21.75
2022-12-12T11:00:26.991Z,19.75
2022-12-12T11:03:31.959Z,20.98
2022-12-12T11:06:29.066Z,19.75
2022-12-12T11:09:20.510Z,20.42
2022-12-12T11:12:16.348Z,20.35
2022-12-12T11:15:26.063Z,21.00
2022-12-12T11:18:20.528Z,20.52
2022-12-12T11:21:12.768Z,21.67
2022-12-12T11:24:04.464Z,20.27
2022-12-12T11:27:01.919Z,21.30
2022-12-12T11:29:52.758Z,21.48
2022-12-12T11:32:42.276Z,20.92
2022-12-12T11:35:36.667Z,21.75
2022-12-12T11:38:37.622Z,22.30
2022-12-12T11:41:25.076Z,20.27
2022-12-12T11:44:25.742Z,25.83
2022-12-12T11:47:22.931Z,21.85
2022-12-12T11:50:28.415Z,22.25
2022-12-12T11:53:15.947Z,24.38
2022-12-12T11:56:12.085Z,23.45
2022-12-12T11:58:59.521Z,21.95
2022-12-12T12:02:05.585Z,22.23
2022-12-12T12:05:18.060Z,20.67
2022-12-12T12:08:05.657Z,20.58
2022-12-12T12:11:14.373Z,21.17
2022-12-12T12:14:17.847Z,20.70
2022-12-12T12:17:20.059Z,21.75
2022-12-12T12:20:19.242Z,21.80
2022-12-12T12:23:41.201Z,20.48
2022-12-12T12:26:35.347Z,20.55
2022-12-12T12:29:33.759Z,19.38
2022-12-12T12:32:35.419Z,19.17
2022-12-12T12:35:29.639Z,19.30
2022-12-12T12:38:33.099Z,20.45
2022-12-12T12:41:20.666Z,19.88
2022-12-12T12:44:08.177Z,42.42
2022-12-12T12:47:11.038Z,41.58
2022-12-12T12:50:24.887Z,21.52
2022-12-12T12:53:24.865Z,24.40
2022-12-12T12:56:26.212Z,21.73
2022-12-12T12:59:21.095Z,20.13
2022-12-12T13:02:23.717Z,20.90
2022-12-12T13:05:26.359Z,21.20
2022-12-12T13:08:28.442Z,19.88
2022-12-12T13:11:22.643Z,20.75
2022-12-12T13:14:30.236Z,20.75
2022-12-12T13:17:23.334Z,20.83
2022-12-12T13:20:17.296Z,19.80
2022-12-12T13:23:20.012Z,18.25
2022-12-12T13:26:19.863Z,19.48
2022-12-12T13:29:07.389Z,19.83
2022-12-12T13:31:54.423Z,20.55
2022-12-12T13:34:46.342Z,18.45
2022-12-12T13:37:43.422Z,19.50
2022-12-12T13:40:39.057Z,19.73
2022-12-12T13:43:29.391Z,20.55
2022-12-12T13:46:26.440Z,19.10
2022-12-12T13:49:21.439Z,18.20
2022-12-12T13:52:22.934Z,18.33
2022-12-12T13:55:12.842Z,19.73
2022-12-12T13:58:02.392Z,20.17
2022-12-12T14:01:27.685Z,18.88
2022-12-12T14:04:35.279Z,18.55
2022-12-12T14:07:23.562Z,18.13
2022-12-12T14:10:24.553Z,20.10
2022-12-12T14:13:23.820Z,20.00
2022-12-12T14:16:13.787Z,19.25
2022-12-12T14:19:07.524Z,19.20
2022-12-12T14:21:54.956Z,19.05
2022-12-12T14:24:53.441Z,18.67
2022-12-12T14:27:49.557Z,19.58
2022-12-12T14:30:56.927Z,19.90
2022-12-12T14:34:14.838Z,19.92
2022-12-12T14:37:51.393Z,19.73
2022-12-12T14:40:45.413Z,20.15
2022-12-12T14:43:40.234Z,20.13
2022-12-12T14:46:30.078Z,20.42
2022-12-12T14:49:18.610Z,20.48
2022-12-12T14:52:06.284Z,20.73
2022-12-12T14:54:53.779Z,20.83
2022-12-12T14:57:41.282Z,20.92
2022-12-12T15:00:29.016Z,20.90
2022-12-12T15:03:22.258Z,21.77
2022-12-12T15:06:31.812Z,20.95
2022-12-12T15:09:29.802Z,22.25
2022-12-12T15:12:20.493Z,20.38
2022-12-12T15:15:23.551Z,20.92
2022-12-12T15:18:11.303Z,23.45
2022-12-12T15:20:58.812Z,21.35
2022-12-12T15:23:46.317Z,22.23
2022-12-12T15:26:33.824Z,21.95
2022-12-12T15:29:24.245Z,23.20
2022-12-12T15:32:20.772Z,24.88
2022-12-12T15:35:08.433Z,22.45
2022-12-12T15:37:59.725Z,24.02
2022-12-12T15:40:51.893Z,23.65
2022-12-12T15:43:39.909Z,30.15
2022-12-12T15:46:30.183Z,26.55
2022-12-12T15:49:38.494Z,26.85
2022-12-12T15:52:30.269Z,28.75
2022-12-12T15:55:21.560Z,29.13
2022-12-12T15:58:28.901Z,39.40
2022-12-12T16:01:20.240Z,39.13
2022-12-12T16:04:09.619Z,40.58
2022-12-12T16:07:20.005Z,36.47
2022-12-12T16:10:10.046Z,34.05
2022-12-12T16:13:20.745Z,33.72
2022-12-12T16:16:35.562Z,34.55
2022-12-12T16:19:37.900Z,33.53
2022-12-12T16:22:32.207Z,32.65
2022-12-12T16:25:21.309Z,37.65
2022-12-12T16:28:09.605Z,34.25
2022-12-12T16:30:57.088Z,35.47
2022-12-12T16:33:44.685Z,33.03
2022-12-12T16:36:39.942Z,33.38
2022-12-12T16:39:29.263Z,31.30
2022-12-12T16:42:19.280Z,32.20
2022-12-12T16:45:06.943Z,30.80
2022-12-12T16:47:54.516Z,30.90
2022-12-12T16:50:42.098Z,30.65
2022-12-12T16:53:29.674Z,31.15
2022-12-12T16:56:17.492Z,28.98
2022-12-12T16:59:04.534Z,27.98
2022-12-12T17:01:51.620Z,28.80
2022-12-12T17:04:39.155Z,31.95
2022-12-12T17:07:26.670Z,30.23
2022-12-12T17:10:14.421Z,28.70
2022-12-12T17:13:05.282Z,31.50
2022-12-12T17:15:54.969Z,31.70
2022-12-12T17:18:42.507Z,31.95
2022-12-12T17:21:29.999Z,30.88
2022-12-12T17:24:17.512Z,31.20
2022-12-12T17:27:05.469Z,28.02
2022-12-12T17:29:52.951Z,29.15
2022-12-12T17:32:40.791Z,27.65
2022-12-12T17:35:28.284Z,52.35
2022-12-12T17:38:16.699Z,45.35
2022-12-12T17:41:08.753Z,28.35
2022-12-12T17:43:56.890Z,33.25
2022-12-12T17:46:44.429Z,34.88
2022-12-12T17:49:32.186Z,32.33
2022-12-12T17:52:21.488Z,28.00
2022-12-12T17:55:55.237Z,26.80
2022-12-12T17:58:16.525Z,26.23
2022-12-12T18:01:12.368Z,24.40
2022-12-12T18:04:00.351Z,25.85
2022-12-12T18:06:48.210Z,27.45
2022-12-12T18:09:35.792Z,28.50
2022-12-12T18:12:23.253Z,27.25
2022-12-12T18:15:10.970Z,27.92
2022-12-12T18:17:58.507Z,28.67
2022-12-12T18:20:45.588Z,28.42
2022-12-12T18:23:33.483Z,28.15
2022-12-12T18:26:22.657Z,28.10
2022-12-12T18:29:11.996Z,28.00
2022-12-12T18:31:59.613Z,28.30
2022-12-12T18:34:46.753Z,27.60
2022-12-12T18:37:34.331Z,28.48
2022-12-12T18:40:21.810Z,30.02
2022-12-12T18:43:09.089Z,27.25
2022-12-12T18:45:56.986Z,29.77
2022-12-12T18:48:46.820Z,29.30
2022-12-12T18:51:33.886Z,27.95
2022-12-12T18:54:21.373Z,26.20
2022-12-12T18:57:08.876Z,26.88
2022-12-12T18:59:56.398Z,25.35
2022-12-12T19:02:44.586Z,24.98
2022-12-12T19:05:32.213Z,25.27
2022-12-12T19:08:20.197Z,26.75
2022-12-12T19:11:08.538Z,24.73
2022-12-12T19:13:56.069Z,24.38
2022-12-12T19:16:44.215Z,24.83
2022-12-12T19:19:31.807Z,27.67
2022-12-12T19:22:44.003Z,30.23
2022-12-12T19:25:26.993Z,33.30
2022-12-12T19:28:14.547Z,31.52
2022-12-12T19:31:07.687Z,77.57
2022-12-12T19:33:55.338Z,32.25
2022-12-12T19:36:43.219Z,26.13
2022-12-12T19:39:30.710Z,26.15
2022-12-12T19:42:17.817Z,24.25
2022-12-12T19:45:05.678Z,23.45
2022-12-12T19:47:53.350Z,23.55
2022-12-12T19:50:41.709Z,24.48
2022-12-12T19:53:29.081Z,24.25
2022-12-12T19:56:19.954Z,23.80
2022-12-12T19:59:07.779Z,22.77
2022-12-12T20:01:55.337Z,24.35
2022-12-12T20:04:42.930Z,23.70
2022-12-12T20:07:29.962Z,23.15
2022-12-12T20:10:17.500Z,23.52
2022-12-12T20:13:04.737Z,23.23
2022-12-12T20:15:52.243Z,21.55
2022-12-12T20:18:39.787Z,22.38
2022-12-12T20:22:00.254Z,20.80
2022-12-12T20:24:37.351Z,22.30
2022-12-12T20:27:25.062Z,23.45
2022-12-12T20:30:12.945Z,21.30
2022-12-12T20:33:00.785Z,21.95
2022-12-12T20:35:48.423Z,21.83
2022-12-12T20:38:37.029Z,21.05
2022-12-12T20:41:30.537Z,21.20
2022-12-12T20:44:18.214Z,23.63
2022-12-12T20:47:06.981Z,22.50
2022-12-12T20:49:54.728Z,22.40
2022-12-12T20:52:42.705Z,20.95
2022-12-12T20:55:30.746Z,20.48
2022-12-12T20:58:18.248Z,20.50
2022-12-12T21:01:14.651Z,19.52
2022-12-12T21:04:04.281Z,19.95
2022-12-12T21:06:52.117Z,20.30
2022-12-12T21:09:39.909Z,19.77
2022-12-12T21:12:27.409Z,19.48
2022-12-12T21:15:15.185Z,19.52
2022-12-12T21:18:02.982Z,20.25
2022-12-12T21:20:50.551Z,19.52
2022-12-12T21:23:38.434Z,21.00
2022-12-12T21:26:29.377Z,21.90
2022-12-12T21:29:17.036Z,22.45
2022-12-12T21:32:04.820Z,22.25
2022-12-12T21:34:52.352Z,22.00
2022-12-12T21:37:40.686Z,23.35
2022-12-12T21:40:28.403Z,24.00
2022-12-12T21:43:15.906Z,23.20
2022-12-12T21:46:17.634Z,23.48
2022-12-12T21:49:25.428Z,23.05
2022-12-12T21:52:13.909Z,22.33
2022-12-12T21:55:01.438Z,23.48
2022-12-12T21:57:49.042Z,24.10
2022-12-12T22:00:39.993Z,22.25
2022-12-12T22:03:27.475Z,21.63
2022-12-12T22:06:14.941Z,20.35
2022-12-12T22:09:05.845Z,32.28
2022-12-12T22:12:03.325Z,25.77
2022-12-12T22:14:51.894Z,24.23
2022-12-12T22:17:39.479Z,21.55
2022-12-12T22:20:27.307Z,21.65
2022-12-12T22:23:14.808Z,21.13
2022-12-12T22:26:02.439Z,21.15
2022-12-12T22:28:51.300Z,21.35
2022-12-12T22:31:40.325Z,19.98
2022-12-12T22:34:29.038Z,21.85
2022-12-12T22:37:16.553Z,21.10
2022-12-12T22:40:04.017Z,23.52
2022-12-12T22:42:51.594Z,21.00
2022-12-12T22:45:39.184Z,21.20
2022-12-12T22:48:26.669Z,22.63
2022-12-12T22:51:20.379Z,21.20
2022-12-12T22:54:08.070Z,20.98
2022-12-12T22:56:55.709Z,20.92
2022-12-12T22:59:44.676Z,20.17
2022-12-12T23:02:32.239Z,21.23
2022-12-12T23:05:19.972Z,19.45
2022-12-12T23:08:07.863Z,20.27
2022-12-12T23:10:55.401Z,19.42
2022-12-12T23:13:46.458Z,20.15
2022-12-12T23:16:37.560Z,20.33
2022-12-12T23:19:26.128Z,19.15
2022-12-12T23:22:14.001Z,18.80
2022-12-12T23:25:01.519Z,21.92
2022-12-12T23:27:49.006Z,21.25
2022-12-12T23:30:37.789Z,20.85
2022-12-12T23:33:26.108Z,19.88
2022-12-12T23:36:15.290Z,20.95
2022-12-12T23:39:06.164Z,19.58
2022-12-12T23:41:54.043Z,19.02
2022-12-12T23:44:41.627Z,18.02
2022-12-12T23:47:29.148Z,18.98
2022-12-12T23:50:16.732Z,19.65
2022-12-12T23:53:10.319Z,19.08
2022-12-12T23:56:02.630Z,18.95
2022-12-12T23:58:50.168Z,18.65
